createdAt,value
2019-05-30T00:02:44.996Z,15.60
2019-05-30T00:08:04.464Z,15.60
2019-05-30T00:13:05.144Z,15.50
2019-05-30T00:18:05.166Z,15.40
2019-05-30T00:23:04.964Z,15.40
2019-05-30T00:28:05.182Z,15.40
2019-05-30T00:33:05.221Z,15.40
2019-05-30T00:38:06.074Z,15.30
2019-05-30T00:43:06.300Z,15.30
2019-05-30T00:48:06.530Z,15.20
2019-05-30T00:53:07.037Z,15.20
2019-05-30T00:58:07.444Z,15.20
2019-05-30T01:03:09.060Z,15.10
2019-05-30T01:08:08.624Z,15.00
2019-05-30T01:13:08.348Z,15.00
2019-05-30T01:18:08.085Z,15.00
2019-05-30T01:23:07.738Z,14.90
2019-05-30T01:28:07.951Z,14.90
2019-05-30T01:33:08.134Z,14.90
2019-05-30T01:38:08.205Z,14.80
2019-05-30T01:43:08.284Z,14.70
2019-05-30T01:48:08.577Z,14.70
2019-05-30T01:53:08.864Z,14.60
2019-05-30T01:58:09.211Z,14.60
2019-05-30T02:03:09.767Z,14.60
2019-05-30T02:08:10.231Z,14.60
2019-05-30T02:13:10.408Z,14.60
2019-05-30T02:18:10.377Z,14.60
2019-05-30T02:23:11.487Z,14.60
2019-05-30T02:28:11.359Z,14.50
2019-05-30T02:33:12.883Z,14.50
2019-05-30T02:38:12.378Z,14.40
2019-05-30T02:43:12.514Z,14.40
2019-05-30T02:48:12.619Z,14.40
2019-05-30T02:53:13.145Z,14.30
2019-05-30T02:58:13.343Z,14.30
2019-05-30T03:03:14.554Z,14.30
2019-05-30T03:08:14.927Z,14.30
2019-05-30T03:13:14.812Z,14.30
2019-05-30T03:18:15.153Z,14.20
2019-05-30T03:23:15.231Z,14.20
2019-05-30T03:28:14.943Z,14.10
2019-05-30T03:33:32.304Z,14.00
2019-05-30T03:38:16.445Z,14.00
2019-05-30T03:43:16.334Z,14.00
2019-05-30T03:48:18.664Z,14.00
2019-05-30T03:53:18.708Z,14.00
2019-05-30T03:58:29.129Z,14.00
2019-05-30T04:03:42.679Z,14.10
2019-05-30T04:08:45.327Z,14.20
2019-05-30T04:13:54.667Z,14.20
2019-05-30T04:18:54.341Z,14.20
2019-05-30T04:23:54.934Z,14.30
2019-05-30T04:28:54.671Z,14.30
2019-05-30T04:33:54.351Z,14.40
2019-05-30T04:38:54.092Z,14.50
2019-05-30T04:43:53.734Z,14.60
2019-05-30T04:48:54.092Z,14.60
2019-05-30T04:53:53.844Z,14.70
2019-05-30T04:58:54.467Z,14.80
2019-05-30T05:03:54.112Z,14.90
2019-05-30T05:08:53.785Z,15.00
2019-05-30T05:13:53.431Z,15.10
2019-05-30T05:18:53.148Z,15.20
2019-05-30T05:23:52.864Z,15.30
2019-05-30T05:28:52.518Z,15.40
2019-05-30T05:33:56.592Z,15.50
2019-05-30T05:38:53.536Z,15.60
2019-05-30T05:43:53.262Z,15.70
2019-05-30T05:48:52.961Z,15.80
2019-05-30T05:53:52.692Z,15.90
2019-05-30T05:58:52.583Z,16.00
2019-05-30T06:03:52.243Z,16.10
2019-05-30T06:08:51.962Z,16.20
2019-05-30T06:13:52.128Z,16.30
2019-05-30T06:18:52.040Z,16.30
2019-05-30T06:23:51.884Z,16.40
2019-05-30T06:28:51.539Z,16.40
2019-05-30T06:33:51.197Z,16.50
2019-05-30T06:38:50.907Z,16.60
2019-05-30T06:43:50.575Z,16.70
2019-05-30T06:48:50.298Z,16.70
2019-05-30T06:53:50.273Z,16.80
2019-05-30T06:58:49.919Z,16.90
2019-05-30T07:03:49.644Z,17.00
2019-05-30T07:08:49.283Z,17.10
2019-05-30T07:13:48.935Z,17.20
2019-05-30T07:18:48.603Z,17.40
2019-05-30T07:23:48.275Z,17.50
2019-05-30T07:28:48.357Z,17.60
2019-05-30T07:33:48.069Z,17.70
2019-05-30T07:38:47.770Z,17.90
2019-05-30T07:43:47.428Z,18.10
2019-05-30T07:48:47.086Z,18.30
2019-05-30T07:53:47.468Z,18.30
2019-05-30T07:58:47.211Z,18.40
2019-05-30T08:03:46.855Z,18.60
2019-05-30T08:08:46.544Z,18.60
2019-05-30T08:13:46.197Z,18.70
2019-05-30T08:18:45.852Z,18.90
2019-05-30T08:23:45.491Z,19.00
2019-05-30T08:28:45.696Z,19.10
2019-05-30T08:33:47.429Z,19.20
2019-05-30T08:38:48.277Z,19.40
2019-05-30T08:43:48.216Z,19.50
2019-05-30T08:48:47.842Z,19.70
2019-05-30T08:53:47.475Z,19.80
2019-05-30T08:58:47.479Z,20.00
2019-05-30T09:03:47.176Z,20.10
2019-05-30T09:08:46.843Z,20.20
2019-05-30T09:13:46.795Z,20.30
2019-05-30T09:18:47.469Z,20.30
2019-05-30T09:23:48.071Z,20.40
2019-05-30T09:28:48.306Z,20.40
2019-05-30T09:33:48.672Z,20.50
2019-05-30T09:38:49.653Z,20.60
2019-05-30T09:43:50.255Z,20.60
2019-05-30T09:48:51.731Z,20.50
2019-05-30T09:53:51.458Z,20.50
2019-05-30T09:58:51.849Z,20.50
2019-05-30T10:03:52.310Z,20.50
2019-05-30T10:08:53.077Z,20.50
2019-05-30T10:13:52.980Z,20.50
2019-05-30T10:18:53.532Z,20.60
2019-05-30T10:23:53.763Z,20.50
2019-05-30T10:28:53.528Z,20.50
2019-05-30T10:33:53.305Z,20.50
2019-05-30T10:38:53.948Z,20.50
2019-05-30T10:43:53.768Z,20.50
2019-05-30T10:48:54.754Z,20.50
2019-05-30T10:53:55.875Z,20.50
2019-05-30T10:58:55.523Z,20.40
2019-05-30T11:03:55.242Z,20.40
2019-05-30T11:08:58.261Z,20.40
2019-05-30T11:13:57.903Z,20.40
2019-05-30T11:18:57.962Z,20.40
2019-05-30T11:23:58.371Z,20.50
2019-05-30T11:28:58.838Z,20.50
2019-05-30T11:33:59.226Z,20.50
2019-05-30T11:38:59.428Z,20.60
2019-05-30T11:44:00.824Z,20.60
2019-05-30T11:49:01.108Z,20.60
2019-05-30T11:54:01.195Z,20.60
2019-05-30T11:59:01.916Z,20.60
2019-05-30T12:04:01.568Z,20.60
2019-05-30T12:09:01.288Z,20.60
2019-05-30T12:14:02.820Z,20.70
2019-05-30T12:19:02.642Z,20.80
2019-05-30T12:24:02.760Z,20.90
2019-05-30T12:29:03.746Z,21.00
2019-05-30T12:34:03.420Z,21.00
2019-05-30T12:39:03.852Z,21.10
2019-05-30T12:44:03.489Z,21.10
2019-05-30T12:49:03.655Z,21.20
2019-05-30T12:54:03.939Z,21.30
2019-05-30T12:59:03.679Z,21.30
2019-05-30T13:04:03.478Z,21.40
2019-05-30T13:09:03.835Z,21.50
2019-05-30T13:14:03.548Z,21.60
2019-05-30T13:19:04.414Z,21.60
2019-05-30T13:24:04.231Z,21.70
2019-05-30T13:29:04.366Z,21.70
2019-05-30T13:34:04.919Z,21.70
2019-05-30T13:39:07.468Z,21.80
2019-05-30T13:44:09.597Z,21.80
2019-05-30T13:49:08.861Z,21.80
2019-05-30T13:54:09.320Z,21.80
2019-05-30T13:59:10.126Z,21.90
2019-05-30T14:04:10.451Z,22.00
2019-05-30T14:09:10.487Z,22.10
2019-05-30T14:14:11.008Z,22.10
2019-05-30T14:19:12.570Z,22.20
2019-05-30T14:24:12.131Z,22.20
2019-05-30T14:29:12.036Z,22.20
2019-05-30T14:34:12.247Z,22.30
2019-05-30T14:39:13.255Z,22.40
2019-05-30T14:44:12.958Z,22.40
2019-05-30T14:49:12.805Z,22.50
2019-05-30T14:54:13.178Z,22.60
2019-05-30T14:59:13.417Z,22.60
2019-05-30T15:04:13.404Z,22.70
2019-05-30T15:09:22.154Z,22.70
2019-05-30T15:14:14.900Z,22.80
2019-05-30T15:19:14.620Z,22.80
2019-05-30T15:24:14.374Z,22.80
2019-05-30T15:29:14.195Z,22.80
2019-05-30T15:34:14.717Z,22.80
2019-05-30T15:39:15.069Z,22.70
2019-05-30T15:44:16.309Z,22.70
2019-05-30T15:49:16.433Z,22.60
2019-05-30T15:54:17.128Z,22.60
2019-05-30T15:59:17.751Z,22.60
2019-05-30T16:04:18.279Z,22.50
2019-05-30T16:09:18.893Z,22.50
2019-05-30T16:14:19.407Z,22.40
2019-05-30T16:19:24.202Z,22.40
2019-05-30T16:24:20.520Z,22.40
2019-05-30T16:29:20.176Z,22.30
2019-05-30T16:34:20.155Z,22.30
2019-05-30T16:39:20.446Z,22.20
2019-05-30T16:44:20.498Z,22.10
2019-05-30T16:49:21.127Z,22.10
2019-05-30T16:54:21.361Z,22.10
2019-05-30T16:59:22.663Z,22.00
2019-05-30T17:04:23.094Z,21.90
2019-05-30T17:09:23.460Z,21.90
2019-05-30T17:14:23.894Z,21.90
2019-05-30T17:19:24.496Z,21.80
2019-05-30T17:24:25.282Z,21.80
2019-05-30T17:29:25.745Z,21.80
2019-05-30T17:34:26.342Z,21.80
2019-05-30T17:39:26.699Z,21.80
2019-05-30T17:44:27.221Z,21.80
2019-05-30T17:49:27.999Z,21.80
2019-05-30T17:54:28.248Z,21.80
2019-05-30T17:59:28.530Z,21.80
2019-05-30T18:04:28.699Z,21.70
2019-05-30T18:09:29.139Z,21.70
2019-05-30T18:14:29.263Z,21.70
2019-05-30T18:19:29.464Z,21.70
2019-05-30T18:24:29.645Z,21.70
2019-05-30T18:29:30.220Z,21.70
2019-05-30T18:34:30.500Z,21.60
2019-05-30T18:39:30.791Z,21.60
2019-05-30T18:44:32.801Z,21.60
2019-05-30T18:49:31.998Z,21.60
2019-05-30T18:54:32.810Z,21.50
2019-05-30T18:59:33.228Z,21.50
2019-05-30T19:04:44.856Z,21.40
2019-05-30T19:09:44.747Z,21.40
2019-05-30T19:14:44.763Z,21.40
2019-05-30T19:19:44.415Z,21.30
2019-05-30T19:24:44.202Z,21.30
2019-05-30T19:29:44.270Z,21.20
2019-05-30T19:34:44.175Z,21.20
2019-05-30T19:39:43.845Z,21.20
2019-05-30T19:44:43.492Z,21.20
2019-05-30T19:49:43.176Z,21.10
2019-05-30T19:54:43.163Z,21.10
2019-05-30T19:59:42.819Z,21.00
2019-05-30T20:04:42.476Z,21.00
2019-05-30T20:09:42.135Z,21.00
2019-05-30T20:14:41.864Z,20.90
2019-05-30T20:19:42.014Z,20.90
2019-05-30T20:24:42.631Z,20.80
2019-05-30T20:29:46.052Z,20.80
2019-05-30T20:34:44.111Z,20.80
2019-05-30T20:39:44.390Z,20.80
2019-05-30T20:44:44.063Z,20.80
2019-05-30T20:49:43.729Z,20.70
2019-05-30T20:54:43.555Z,20.70
2019-05-30T20:59:44.319Z,20.60
2019-05-30T21:04:43.987Z,20.60
2019-05-30T21:09:44.264Z,20.50
2019-05-30T21:14:47.071Z,20.50
2019-05-30T21:19:46.793Z,20.40
2019-05-30T21:24:47.432Z,20.40
2019-05-30T21:29:47.623Z,20.40
2019-05-30T21:34:48.597Z,20.30
2019-05-30T21:39:49.455Z,20.30
2019-05-30T21:44:52.378Z,20.20
2019-05-30T21:49:51.020Z,20.20
2019-05-30T21:54:50.824Z,20.20
2019-05-30T21:59:51.065Z,20.10
2019-05-30T22:04:50.850Z,20.10
2019-05-30T22:09:51.518Z,20.10
2019-05-30T22:14:51.988Z,20.10
2019-05-30T22:19:52.257Z,20.10
2019-05-30T22:24:52.405Z,20.10
2019-05-30T22:29:53.534Z,20.00
2019-05-30T22:34:53.202Z,20.00
2019-05-30T22:39:53.595Z,20.00
2019-05-30T22:44:53.808Z,20.00
2019-05-30T22:49:53.479Z,20.00
2019-05-30T22:54:53.309Z,20.00
2019-05-30T22:59:53.128Z,20.00
2019-05-30T23:04:52.755Z,20.00
2019-05-30T23:09:53.986Z,19.90
2019-05-30T23:14:54.284Z,19.90
2019-05-30T23:19:54.836Z,19.90
2019-05-30T23:24:55.527Z,19.90
2019-05-30T23:29:55.990Z,19.90
2019-05-30T23:34:56.413Z,19.80
2019-05-30T23:39:56.864Z,19.80
2019-05-30T23:44:57.539Z,19.80
2019-05-30T23:49:58.197Z,19.80
2019-05-30T23:54:58.293Z,19.80
2019-05-30T23:59:58.824Z,19.80
